sensor_id;sensor_type;location;lat;lon;timestamp;pressure;altitude;pressure_sealevel;temperature;humidity
46464;BME280;32161;48.148;-1.554;2023-06-24T00:00:03;101880.69;;;20.51;72.47
46464;BME280;32161;48.148;-1.554;2023-06-24T00:02:35;101871.53;;;20.45;72.77
46464;BME280;32161;48.148;-1.554;2023-06-24T00:05:04;101870.66;;;20.40;72.95
46464;BME280;32161;48.148;-1.554;2023-06-24T00:07:34;101871.75;;;20.34;73.23
46464;BME280;32161;48.148;-1.554;2023-06-24T00:10:11;101872.28;;;20.31;73.33
46464;BME280;32161;48.148;-1.554;2023-06-24T00:12:39;101865.66;;;20.32;73.33
46464;BME280;32161;48.148;-1.554;2023-06-24T00:15:08;101863.41;;;20.29;73.38
46464;BME280;32161;48.148;-1.554;2023-06-24T00:17:38;101862.03;;;20.26;73.65
46464;BME280;32161;48.148;-1.554;2023-06-24T00:20:07;101874.13;;;20.20;73.58
46464;BME280;32161;48.148;-1.554;2023-06-24T00:22:37;101866.09;;;20.13;73.87
46464;BME280;32161;48.148;-1.554;2023-06-24T00:25:09;101863.88;;;20.10;74.16
46464;BME280;32161;48.148;-1.554;2023-06-24T00:27:37;101856.66;;;20.04;74.20
46464;BME280;32161;48.148;-1.554;2023-06-24T00:30:06;101851.94;;;19.99;74.19
46464;BME280;32161;48.148;-1.554;2023-06-24T00:32:34;101862.38;;;19.92;74.63
46464;BME280;32161;48.148;-1.554;2023-06-24T00:35:04;101859.34;;;19.94;74.56
46464;BME280;32161;48.148;-1.554;2023-06-24T00:37:31;101859.34;;;19.94;74.66
46464;BME280;32161;48.148;-1.554;2023-06-24T00:39:59;101858.50;;;19.93;74.63
46464;BME280;32161;48.148;-1.554;2023-06-24T00:42:27;101856.56;;;19.89;74.87
46464;BME280;32161;48.148;-1.554;2023-06-24T00:44:55;101857.91;;;19.86;74.97
46464;BME280;32161;48.148;-1.554;2023-06-24T00:47:22;101849.91;;;19.85;75.20
46464;BME280;32161;48.148;-1.554;2023-06-24T00:49:50;101844.09;;;19.81;75.39
46464;BME280;32161;48.148;-1.554;2023-06-24T00:52:19;101847.69;;;19.82;75.22
46464;BME280;32161;48.148;-1.554;2023-06-24T00:54:46;101844.63;;;19.83;74.91
46464;BME280;32161;48.148;-1.554;2023-06-24T00:57:14;101844.38;;;19.80;75.06
46464;BME280;32161;48.148;-1.554;2023-06-24T00:59:44;101843.50;;;19.79;74.96
46464;BME280;32161;48.148;-1.554;2023-06-24T01:02:12;101850.13;;;19.78;75.12
46464;BME280;32161;48.148;-1.554;2023-06-24T01:04:40;101839.91;;;19.79;75.13
46464;BME280;32161;48.148;-1.554;2023-06-24T01:07:09;101843.25;;;19.81;74.94
46464;BME280;32161;48.148;-1.554;2023-06-24T01:09:38;101848.47;;;19.77;75.05
46464;BME280;32161;48.148;-1.554;2023-06-24T01:12:07;101842.38;;;19.75;75.18
46464;BME280;32161;48.148;-1.554;2023-06-24T01:14:35;101839.63;;;19.75;75.10
46464;BME280;32161;48.148;-1.554;2023-06-24T01:17:10;101832.44;;;19.74;75.21
46464;BME280;32161;48.148;-1.554;2023-06-24T01:20:02;101829.69;;;19.74;74.97
46464;BME280;32161;48.148;-1.554;2023-06-24T01:26:40;101826.63;;;19.70;74.81
46464;BME280;32161;48.148;-1.554;2023-06-24T01:29:38;101827.72;;;19.69;74.30
46464;BME280;32161;48.148;-1.554;2023-06-24T01:32:16;101831.84;;;19.67;74.72
46464;BME280;32161;48.148;-1.554;2023-06-24T01:34:53;101830.47;;;19.64;74.85
46464;BME280;32161;48.148;-1.554;2023-06-24T01:37:28;101825.13;;;19.58;75.05
46464;BME280;32161;48.148;-1.554;2023-06-24T01:40:05;101826.75;;;19.54;75.41
46464;BME280;32161;48.148;-1.554;2023-06-24T01:42:39;101823.16;;;19.53;75.03
46464;BME280;32161;48.148;-1.554;2023-06-24T01:45:10;101819.84;;;19.51;74.97
46464;BME280;32161;48.148;-1.554;2023-06-24T01:47:43;101821.72;;;19.45;74.92
46464;BME280;32161;48.148;-1.554;2023-06-24T01:50:13;101819.50;;;19.42;75.00
46464;BME280;32161;48.148;-1.554;2023-06-24T01:52:45;101820.84;;;19.40;75.02
46464;BME280;32161;48.148;-1.554;2023-06-24T01:55:19;101816.94;;;19.36;75.19
46464;BME280;32161;48.148;-1.554;2023-06-24T01:57:50;101816.91;;;19.31;75.54
46464;BME280;32161;48.148;-1.554;2023-06-24T02:00:18;101826.28;;;19.30;75.58
46464;BME280;32161;48.148;-1.554;2023-06-24T02:02:48;101815.19;;;19.24;75.78
46464;BME280;32161;48.148;-1.554;2023-06-24T02:05:18;101818.47;;;19.21;76.06
46464;BME280;32161;48.148;-1.554;2023-06-24T02:07:47;101816.25;;;19.18;76.13
46464;BME280;32161;48.148;-1.554;2023-06-24T02:10:18;101814.84;;;19.16;76.44
46464;BME280;32161;48.148;-1.554;2023-06-24T02:12:50;101814.81;;;19.11;76.57
46464;BME280;32161;48.148;-1.554;2023-06-24T02:15:20;101819.19;;;19.07;76.75
46464;BME280;32161;48.148;-1.554;2023-06-24T02:17:51;101815.84;;;19.05;76.89
46464;BME280;32161;48.148;-1.554;2023-06-24T02:20:23;101819.94;;;19.02;76.63
46464;BME280;32161;48.148;-1.554;2023-06-24T02:22:53;101813.88;;;19.00;76.90
46464;BME280;32161;48.148;-1.554;2023-06-24T02:25:22;101821.56;;;18.98;77.15
46464;BME280;32161;48.148;-1.554;2023-06-24T02:27:51;101816.59;;;18.95;77.30
46464;BME280;32161;48.148;-1.554;2023-06-24T02:30:20;101814.34;;;18.92;77.54
46464;BME280;32161;48.148;-1.554;2023-06-24T02:32:49;101816.28;;;18.91;77.52
46464;BME280;32161;48.148;-1.554;2023-06-24T02:35:17;101803.53;;;18.85;78.14
46464;BME280;32161;48.148;-1.554;2023-06-24T02:37:44;101802.59;;;18.74;78.71
46464;BME280;32161;48.148;-1.554;2023-06-24T02:40:12;101803.69;;;18.73;78.48
46464;BME280;32161;48.148;-1.554;2023-06-24T02:42:40;101798.69;;;18.70;77.93
46464;BME280;32161;48.148;-1.554;2023-06-24T02:45:09;101802.75;;;18.68;77.98
46464;BME280;32161;48.148;-1.554;2023-06-24T02:47:37;101799.72;;;18.64;78.33
46464;BME280;32161;48.148;-1.554;2023-06-24T02:50:09;101798.03;;;18.63;78.24
46464;BME280;32161;48.148;-1.554;2023-06-24T02:52:37;101790.28;;;18.60;77.97
46464;BME280;32161;48.148;-1.554;2023-06-24T02:55:06;101796.88;;;18.59;78.43
46464;BME280;32161;48.148;-1.554;2023-06-24T02:57:35;101801.00;;;18.57;78.72
46464;BME280;32161;48.148;-1.554;2023-06-24T03:00:06;101793.25;;;18.53;79.17
46464;BME280;32161;48.148;-1.554;2023-06-24T03:02:38;101793.50;;;18.52;78.87
46464;BME280;32161;48.148;-1.554;2023-06-24T03:05:09;101795.41;;;18.51;78.40
46464;BME280;32161;48.148;-1.554;2023-06-24T03:07:38;101794.84;;;18.49;78.49
46464;BME280;32161;48.148;-1.554;2023-06-24T03:10:07;101794.25;;;18.47;78.70
46464;BME280;32161;48.148;-1.554;2023-06-24T03:12:36;101797.03;;;18.47;78.74
46464;BME280;32161;48.148;-1.554;2023-06-24T03:15:06;101789.03;;;18.46;78.72
46464;BME280;32161;48.148;-1.554;2023-06-24T03:17:35;101792.28;;;18.43;78.78
46464;BME280;32161;48.148;-1.554;2023-06-24T03:20:05;101793.63;;;18.40;78.77
46464;BME280;32161;48.148;-1.554;2023-06-24T03:22:36;101793.91;;;18.39;78.66
46464;BME280;32161;48.148;-1.554;2023-06-24T03:25:04;101788.06;;;18.35;78.73
46464;BME280;32161;48.148;-1.554;2023-06-24T03:27:32;101785.00;;;18.32;78.68
46464;BME280;32161;48.148;-1.554;2023-06-24T03:30:01;101784.69;;;18.28;78.78
46464;BME280;32161;48.148;-1.554;2023-06-24T03:32:28;101782.44;;;18.25;79.32
46464;BME280;32161;48.148;-1.554;2023-06-24T03:34:56;101790.13;;;18.23;79.50
46464;BME280;32161;48.148;-1.554;2023-06-24T03:37:23;101791.22;;;18.22;79.27
46464;BME280;32161;48.148;-1.554;2023-06-24T03:39:52;101793.13;;;18.21;78.94
46464;BME280;32161;48.148;-1.554;2023-06-24T03:42:20;101791.47;;;18.20;79.53
46464;BME280;32161;48.148;-1.554;2023-06-24T03:44:48;101798.28;;;18.18;79.57
46464;BME280;32161;48.148;-1.554;2023-06-24T03:47:15;101783.72;;;18.17;79.23
46464;BME280;32161;48.148;-1.554;2023-06-24T03:49:43;101790.38;;;18.21;78.90
46464;BME280;32161;48.148;-1.554;2023-06-24T03:52:10;101791.78;;;18.24;78.56
46464;BME280;32161;48.148;-1.554;2023-06-24T03:54:38;101792.59;;;18.24;78.63
46464;BME280;32161;48.148;-1.554;2023-06-24T03:57:08;101796.47;;;18.23;78.79
46464;BME280;32161;48.148;-1.554;2023-06-24T03:59:35;101790.91;;;18.18;79.28
46464;BME280;32161;48.148;-1.554;2023-06-24T04:02:04;101790.81;;;18.13;79.08
46464;BME280;32161;48.148;-1.554;2023-06-24T04:04:34;101803.41;;;18.09;79.37
46464;BME280;32161;48.148;-1.554;2023-06-24T04:07:01;101800.59;;;18.04;79.99
46464;BME280;32161;48.148;-1.554;2023-06-24T04:09:31;101806.22;;;17.92;80.76
46464;BME280;32161;48.148;-1.554;2023-06-24T04:11:59;101805.25;;;17.81;80.68
46464;BME280;32161;48.148;-1.554;2023-06-24T04:14:28;101804.09;;;17.77;80.57
46464;BME280;32161;48.148;-1.554;2023-06-24T04:16:56;101801.78;;;17.74;80.13
46464;BME280;32161;48.148;-1.554;2023-06-24T04:19:23;101805.88;;;17.72;79.79
46464;BME280;32161;48.148;-1.554;2023-06-24T04:21:51;101796.78;;;17.71;79.72
46464;BME280;32161;48.148;-1.554;2023-06-24T04:24:18;101805.03;;;17.71;80.05
46464;BME280;32161;48.148;-1.554;2023-06-24T04:26:46;101790.47;;;17.71;80.47
46464;BME280;32161;48.148;-1.554;2023-06-24T04:29:14;101797.63;;;17.72;80.51
46464;BME280;32161;48.148;-1.554;2023-06-24T04:31:42;101798.72;;;17.71;80.48
46464;BME280;32161;48.148;-1.554;2023-06-24T04:34:10;101790.97;;;17.68;80.69
46464;BME280;32161;48.148;-1.554;2023-06-24T04:36:37;101795.06;;;17.65;80.73
46464;BME280;32161;48.148;-1.554;2023-06-24T04:39:05;101798.91;;;17.64;81.11
46464;BME280;32161;48.148;-1.554;2023-06-24T04:41:33;101803.81;;;17.62;80.94
46464;BME280;32161;48.148;-1.554;2023-06-24T04:44:00;101796.41;;;17.63;81.31
46464;BME280;32161;48.148;-1.554;2023-06-24T04:46:28;101792.31;;;17.65;81.15
46464;BME280;32161;48.148;-1.554;2023-06-24T04:48:56;101792.66;;;17.69;81.67
46464;BME280;32161;48.148;-1.554;2023-06-24T04:51:24;101799.91;;;17.75;82.47
46464;BME280;32161;48.148;-1.554;2023-06-24T04:53:52;101796.91;;;17.76;82.88
46464;BME280;32161;48.148;-1.554;2023-06-24T04:56:21;101793.91;;;17.78;83.10
46464;BME280;32161;48.148;-1.554;2023-06-24T04:58:48;101803.25;;;17.77;83.82
46464;BME280;32161;48.148;-1.554;2023-06-24T05:01:17;101804.09;;;17.77;84.26
46464;BME280;32161;48.148;-1.554;2023-06-24T05:03:44;101804.09;;;17.77;84.49
46464;BME280;32161;48.148;-1.554;2023-06-24T05:06:13;101800.25;;;17.78;85.17
46464;BME280;32161;48.148;-1.554;2023-06-24T05:08:41;101796.66;;;17.78;85.94
46464;BME280;32161;48.148;-1.554;2023-06-24T05:11:08;101800.84;;;17.80;86.37
46464;BME280;32161;48.148;-1.554;2023-06-24T05:13:37;101803.09;;;17.84;86.85
46464;BME280;32161;48.148;-1.554;2023-06-24T05:16:05;101798.75;;;17.88;87.36
46464;BME280;32161;48.148;-1.554;2023-06-24T05:18:32;101796.03;;;17.93;87.93
46464;BME280;32161;48.148;-1.554;2023-06-24T05:21:00;101796.63;;;17.95;87.96
46464;BME280;32161;48.148;-1.554;2023-06-24T05:23:29;101793.13;;;17.99;87.72
46464;BME280;32161;48.148;-1.554;2023-06-24T05:25:56;101790.44;;;18.04;88.25
46464;BME280;32161;48.148;-1.554;2023-06-24T05:28:24;101798.00;;;18.14;88.77
46464;BME280;32161;48.148;-1.554;2023-06-24T05:30:51;101785.13;;;18.20;88.37
46464;BME280;32161;48.148;-1.554;2023-06-24T05:33:19;101785.50;;;18.28;88.25
46464;BME280;32161;48.148;-1.554;2023-06-24T05:35:47;101785.88;;;18.37;88.36
46464;BME280;32161;48.148;-1.554;2023-06-24T05:38:15;101789.59;;;18.48;88.81
46464;BME280;32161;48.148;-1.554;2023-06-24T05:40:44;101790.81;;;18.57;88.74
46464;BME280;32161;48.148;-1.554;2023-06-24T05:43:12;101788.97;;;18.68;88.30
46464;BME280;32161;48.148;-1.554;2023-06-24T05:45:40;101787.19;;;18.78;88.41
46464;BME280;32161;48.148;-1.554;2023-06-24T05:48:07;101785.97;;;18.91;88.32
46464;BME280;32161;48.148;-1.554;2023-06-24T05:50:35;101789.38;;;19.03;88.15
46464;BME280;32161;48.148;-1.554;2023-06-24T05:53:02;101779.84;;;19.16;87.58
46464;BME280;32161;48.148;-1.554;2023-06-24T05:55:30;101780.50;;;19.28;87.56
46464;BME280;32161;48.148;-1.554;2023-06-24T05:57:59;101783.06;;;19.40;86.48
46464;BME280;32161;48.148;-1.554;2023-06-24T06:00:26;101786.22;;;19.54;86.24
46464;BME280;32161;48.148;-1.554;2023-06-24T06:02:54;101794.94;;;19.73;84.08
46464;BME280;32161;48.148;-1.554;2023-06-24T06:05:21;101788.63;;;19.83;84.20
46464;BME280;32161;48.148;-1.554;2023-06-24T06:07:49;101789.81;;;19.97;83.55
46464;BME280;32161;48.148;-1.554;2023-06-24T06:10:16;101793.47;;;20.08;82.81
46464;BME280;32161;48.148;-1.554;2023-06-24T06:12:44;101795.47;;;20.22;82.10
46464;BME280;32161;48.148;-1.554;2023-06-24T06:15:13;101781.16;;;20.36;81.57
46464;BME280;32161;48.148;-1.554;2023-06-24T06:17:40;101782.06;;;20.52;81.16
46464;BME280;32161;48.148;-1.554;2023-06-24T06:20:09;101790.69;;;20.60;80.74
46464;BME280;32161;48.148;-1.554;2023-06-24T06:22:37;101788.50;;;20.72;79.83
46464;BME280;32161;48.148;-1.554;2023-06-24T06:25:06;101786.31;;;20.85;79.69
46464;BME280;32161;48.148;-1.554;2023-06-24T06:27:33;101790.19;;;20.99;80.14
46464;BME280;32161;48.148;-1.554;2023-06-24T06:30:01;101786.34;;;21.15;78.91
46464;BME280;32161;48.148;-1.554;2023-06-24T06:32:30;101785.22;;;21.32;77.94
46464;BME280;32161;48.148;-1.554;2023-06-24T06:34:57;101790.78;;;21.42;77.89
46464;BME280;32161;48.148;-1.554;2023-06-24T06:37:25;101790.22;;;21.55;77.00
46464;BME280;32161;48.148;-1.554;2023-06-24T06:39:53;101789.66;;;21.68;76.69
46464;BME280;32161;48.148;-1.554;2023-06-24T06:42:20;101800.41;;;21.80;77.15
46464;BME280;32161;48.148;-1.554;2023-06-24T06:44:48;101801.22;;;21.91;77.04
46464;BME280;32161;48.148;-1.554;2023-06-24T06:47:15;101797.84;;;22.09;76.50
46464;BME280;32161;48.148;-1.554;2023-06-24T06:49:45;101796.16;;;22.24;75.82
46464;BME280;32161;48.148;-1.554;2023-06-24T06:52:12;101797.47;;;22.36;74.94
46464;BME280;32161;48.148;-1.554;2023-06-24T06:54:40;101793.03;;;22.46;73.81
46464;BME280;32161;48.148;-1.554;2023-06-24T06:57:07;101799.63;;;22.55;74.37
46464;BME280;32161;48.148;-1.554;2023-06-24T06:59:35;101792.59;;;22.67;74.67
46464;BME280;32161;48.148;-1.554;2023-06-24T07:02:03;101796.41;;;22.82;72.47
46464;BME280;32161;48.148;-1.554;2023-06-24T07:04:31;101790.25;;;22.95;72.23
46464;BME280;32161;48.148;-1.554;2023-06-24T07:07:00;101787.13;;;23.07;72.15
46464;BME280;32161;48.148;-1.554;2023-06-24T07:09:28;101789.22;;;23.20;70.14
46464;BME280;32161;48.148;-1.554;2023-06-24T07:11:56;101797.47;;;23.30;69.83
46464;BME280;32161;48.148;-1.554;2023-06-24T07:14:24;101797.59;;;23.49;69.78
46464;BME280;32161;48.148;-1.554;2023-06-24T07:16:51;101798.06;;;23.56;70.50
46464;BME280;32161;48.148;-1.554;2023-06-24T07:19:19;101797.72;;;23.68;69.00
46464;BME280;32161;48.148;-1.554;2023-06-24T07:21:46;101788.44;;;23.78;69.72
46464;BME280;32161;48.148;-1.554;2023-06-24T07:24:15;101788.84;;;23.90;69.05
46464;BME280;32161;48.148;-1.554;2023-06-24T07:26:43;101792.06;;;24.02;69.23
46464;BME280;32161;48.148;-1.554;2023-06-24T07:29:10;101787.44;;;24.17;66.92
46464;BME280;32161;48.148;-1.554;2023-06-24T07:31:38;101789.56;;;24.25;66.70
46464;BME280;32161;48.148;-1.554;2023-06-24T07:34:06;101793.09;;;24.30;66.45
46464;BME280;32161;48.148;-1.554;2023-06-24T07:36:33;101786.19;;;24.28;66.93
46464;BME280;32161;48.148;-1.554;2023-06-24T07:39:01;101784.66;;;24.41;66.56
46464;BME280;32161;48.148;-1.554;2023-06-24T07:41:30;101783.16;;;24.48;66.42
46464;BME280;32161;48.148;-1.554;2023-06-24T07:43:57;101779.19;;;24.54;65.62
46464;BME280;32161;48.148;-1.554;2023-06-24T07:46:25;101779.56;;;24.67;65.68
46464;BME280;32161;48.148;-1.554;2023-06-24T07:48:54;101771.22;;;24.85;65.17
46464;BME280;32161;48.148;-1.554;2023-06-24T07:51:22;101776.78;;;24.85;64.69
46464;BME280;32161;48.148;-1.554;2023-06-24T07:53:49;101775.13;;;25.03;64.62
46464;BME280;32161;48.148;-1.554;2023-06-24T07:56:17;101772.19;;;25.14;63.96
46464;BME280;32161;48.148;-1.554;2023-06-24T07:58:46;101765.19;;;25.16;64.46
46464;BME280;32161;48.148;-1.554;2023-06-24T08:01:14;101761.22;;;25.22;64.62
46464;BME280;32161;48.148;-1.554;2023-06-24T08:03:41;101760.50;;;25.30;64.48
46464;BME280;32161;48.148;-1.554;2023-06-24T08:06:09;101757.56;;;25.41;64.37
46464;BME280;32161;48.148;-1.554;2023-06-24T08:08:36;101757.78;;;25.58;63.14
46464;BME280;32161;48.148;-1.554;2023-06-24T08:11:04;101745.31;;;25.69;63.58
46464;BME280;32161;48.148;-1.554;2023-06-24T08:13:31;101747.63;;;25.81;63.26
46464;BME280;32161;48.148;-1.554;2023-06-24T08:16:00;101749.78;;;25.84;63.90
46464;BME280;32161;48.148;-1.554;2023-06-24T08:18:28;101742.28;;;25.98;63.09
46464;BME280;32161;48.148;-1.554;2023-06-24T08:20:56;101751.75;;;26.11;63.52
46464;BME280;32161;48.148;-1.554;2023-06-24T08:23:24;101744.81;;;26.22;63.13
46464;BME280;32161;48.148;-1.554;2023-06-24T08:25:51;101743.75;;;26.32;62.71
46464;BME280;32161;48.148;-1.554;2023-06-24T08:28:19;101744.69;;;26.41;62.02
46464;BME280;32161;48.148;-1.554;2023-06-24T08:30:46;101747.44;;;26.55;60.10
46464;BME280;32161;48.148;-1.554;2023-06-24T08:33:15;101744.50;;;26.74;58.80
46464;BME280;32161;48.148;-1.554;2023-06-24T08:35:43;101741.47;;;26.84;58.87
46464;BME280;32161;48.148;-1.554;2023-06-24T08:38:10;101735.13;;;26.92;58.58
46464;BME280;32161;48.148;-1.554;2023-06-24T08:40:38;101732.97;;;26.89;59.74
46464;BME280;32161;48.148;-1.554;2023-06-24T08:43:07;101727.34;;;27.03;58.36
46464;BME280;32161;48.148;-1.554;2023-06-24T08:45:34;101724.22;;;27.05;59.99
46464;BME280;32161;48.148;-1.554;2023-06-24T08:48:02;101728.44;;;27.16;59.37
46464;BME280;32161;48.148;-1.554;2023-06-24T08:50:36;101728.66;;;27.28;58.26
46464;BME280;32161;48.148;-1.554;2023-06-24T08:53:08;101721.66;;;27.39;57.22
46464;BME280;32161;48.148;-1.554;2023-06-24T08:55:41;101728.25;;;27.43;58.05
46464;BME280;32161;48.148;-1.554;2023-06-24T08:58:10;101718.25;;;27.51;58.55
46464;BME280;32161;48.148;-1.554;2023-06-24T09:00:37;101719.31;;;27.64;57.29
46464;BME280;32161;48.148;-1.554;2023-06-24T09:03:05;101715.94;;;27.76;57.45
46464;BME280;32161;48.148;-1.554;2023-06-24T09:05:34;101713.19;;;27.84;57.17
46464;BME280;32161;48.148;-1.554;2023-06-24T09:08:02;101711.91;;;27.99;56.33
46464;BME280;32161;48.148;-1.554;2023-06-24T09:10:31;101715.38;;;28.13;54.33
46464;BME280;32161;48.148;-1.554;2023-06-24T09:12:59;101714.25;;;28.23;55.52
46464;BME280;32161;48.148;-1.554;2023-06-24T09:15:31;101704.41;;;28.26;54.88
46464;BME280;32161;48.148;-1.554;2023-06-24T09:17:59;101700.94;;;28.29;54.17
46464;BME280;32161;48.148;-1.554;2023-06-24T09:20:27;101699.97;;;28.33;53.64
46464;BME280;32161;48.148;-1.554;2023-06-24T09:23:05;101691.13;;;28.49;53.41
46464;BME280;32161;48.148;-1.554;2023-06-24T09:25:33;101690.44;;;28.52;52.79
46464;BME280;32161;48.148;-1.554;2023-06-24T09:28:01;101683.03;;;28.56;52.61
46464;BME280;32161;48.148;-1.554;2023-06-24T09:30:29;101678.09;;;28.61;52.27
46464;BME280;32161;48.148;-1.554;2023-06-24T09:32:57;101681.41;;;28.72;52.97
46464;BME280;32161;48.148;-1.554;2023-06-24T09:35:25;101679.91;;;28.83;51.74
46464;BME280;32161;48.148;-1.554;2023-06-24T09:37:55;101682.34;;;29.11;50.78
46464;BME280;32161;48.148;-1.554;2023-06-24T09:40:24;101679.53;;;28.93;51.88
46464;BME280;32161;48.148;-1.554;2023-06-24T09:42:53;101678.06;;;28.96;52.39
46464;BME280;32161;48.148;-1.554;2023-06-24T09:45:24;101672.47;;;29.05;50.22
46464;BME280;32161;48.148;-1.554;2023-06-24T09:47:51;101676.22;;;29.17;51.73
46464;BME280;32161;48.148;-1.554;2023-06-24T09:50:19;101667.78;;;29.26;50.66
46464;BME280;32161;48.148;-1.554;2023-06-24T09:52:49;101668.22;;;29.46;49.61
46464;BME280;32161;48.148;-1.554;2023-06-24T09:55:18;101669.66;;;29.52;50.47
46464;BME280;32161;48.148;-1.554;2023-06-24T09:57:51;101660.78;;;29.50;48.74
46464;BME280;32161;48.148;-1.554;2023-06-24T10:00:21;101667.00;;;29.55;49.18
46464;BME280;32161;48.148;-1.554;2023-06-24T10:02:52;101659.94;;;29.58;48.62
46464;BME280;32161;48.148;-1.554;2023-06-24T10:05:21;101657.22;;;29.70;47.80
46464;BME280;32161;48.148;-1.554;2023-06-24T10:07:49;101659.38;;;29.73;47.37
46464;BME280;32161;48.148;-1.554;2023-06-24T10:10:16;101648.16;;;29.73;46.28
46464;BME280;32161;48.148;-1.554;2023-06-24T10:12:44;101650.28;;;29.76;46.01
46464;BME280;32161;48.148;-1.554;2023-06-24T10:15:15;101642.31;;;29.87;46.69
46464;BME280;32161;48.148;-1.554;2023-06-24T10:17:43;101642.81;;;30.10;45.23
46464;BME280;32161;48.148;-1.554;2023-06-24T10:20:13;101636.78;;;29.99;46.58
46464;BME280;32161;48.148;-1.554;2023-06-24T10:22:46;101643.66;;;30.02;45.75
46464;BME280;32161;48.148;-1.554;2023-06-24T10:25:13;101632.72;;;30.09;45.87
46464;BME280;32161;48.148;-1.554;2023-06-24T10:27:41;101639.38;;;30.04;45.58
46464;BME280;32161;48.148;-1.554;2023-06-24T10:30:18;101631.91;;;30.08;47.45
46464;BME280;32161;48.148;-1.554;2023-06-24T10:32:51;101626.25;;;30.17;46.34
46464;BME280;32161;48.148;-1.554;2023-06-24T10:35:25;101625.25;;;30.22;46.13
46464;BME280;32161;48.148;-1.554;2023-06-24T10:37:58;101630.03;;;30.21;46.34
46464;BME280;32161;48.148;-1.554;2023-06-24T10:40:43;101626.88;;;30.44;44.52
46464;BME280;32161;48.148;-1.554;2023-06-24T10:43:26;101617.09;;;30.29;45.45
46464;BME280;32161;48.148;-1.554;2023-06-24T10:45:58;101622.78;;;30.41;46.52
46464;BME280;32161;48.148;-1.554;2023-06-24T10:48:25;101612.25;;;30.38;45.79
46464;BME280;32161;48.148;-1.554;2023-06-24T10:50:53;101607.84;;;30.49;45.62
46464;BME280;32161;48.148;-1.554;2023-06-24T10:53:22;101609.66;;;30.66;45.72
46464;BME280;32161;48.148;-1.554;2023-06-24T10:55:49;101612.72;;;30.73;45.00
46464;BME280;32161;48.148;-1.554;2023-06-24T10:58:17;101606.44;;;30.76;44.14
46464;BME280;32161;48.148;-1.554;2023-06-24T11:00:44;101617.13;;;30.95;44.06
46464;BME280;32161;48.148;-1.554;2023-06-24T11:03:15;101599.22;;;31.00;44.24
46464;BME280;32161;48.148;-1.554;2023-06-24T11:05:46;101601.53;;;30.85;46.14
46464;BME280;32161;48.148;-1.554;2023-06-24T11:08:13;101602.41;;;30.98;46.59
46464;BME280;32161;48.148;-1.554;2023-06-24T11:10:45;101596.44;;;31.12;44.93
46464;BME280;32161;48.148;-1.554;2023-06-24T11:13:14;101599.38;;;31.28;45.33
46464;BME280;32161;48.148;-1.554;2023-06-24T11:15:41;101584.88;;;31.26;46.08
46464;BME280;32161;48.148;-1.554;2023-06-24T11:18:09;101590.25;;;31.43;43.59
46464;BME280;32161;48.148;-1.554;2023-06-24T11:20:39;101584.75;;;31.47;43.75
46464;BME280;32161;48.148;-1.554;2023-06-24T11:23:08;101585.91;;;31.58;44.59
46464;BME280;32161;48.148;-1.554;2023-06-24T11:25:40;101580.50;;;31.77;43.90
46464;BME280;32161;48.148;-1.554;2023-06-24T11:28:16;101577.47;;;31.70;44.50
46464;BME280;32161;48.148;-1.554;2023-06-24T11:30:44;101572.47;;;31.64;43.34
46464;BME280;32161;48.148;-1.554;2023-06-24T11:33:12;101573.97;;;31.61;42.99
46464;BME280;32161;48.148;-1.554;2023-06-24T11:35:41;101562.47;;;31.66;44.54
46464;BME280;32161;48.148;-1.554;2023-06-24T11:38:09;101562.94;;;31.80;41.92
46464;BME280;32161;48.148;-1.554;2023-06-24T11:40:37;101557.56;;;31.75;43.54
46464;BME280;32161;48.148;-1.554;2023-06-24T11:43:04;101555.41;;;31.84;44.57
46464;BME280;32161;48.148;-1.554;2023-06-24T11:45:32;101553.41;;;31.97;42.45
46464;BME280;32161;48.148;-1.554;2023-06-24T11:48:04;101548.09;;;32.08;42.88
46464;BME280;32161;48.148;-1.554;2023-06-24T11:50:36;101539.91;;;32.31;42.19
46464;BME280;32161;48.148;-1.554;2023-06-24T11:53:05;101540.63;;;32.28;42.38
46464;BME280;32161;48.148;-1.554;2023-06-24T11:55:34;101525.41;;;32.29;42.06
46464;BME280;32161;48.148;-1.554;2023-06-24T11:58:02;101528.44;;;32.24;41.22
46464;BME280;32161;48.148;-1.554;2023-06-24T12:00:35;101523.41;;;32.29;41.06
46464;BME280;32161;48.148;-1.554;2023-06-24T12:03:05;101520.78;;;32.37;39.98
46464;BME280;32161;48.148;-1.554;2023-06-24T12:05:34;101513.38;;;32.44;39.40
46464;BME280;32161;48.148;-1.554;2023-06-24T12:08:06;101517.03;;;32.32;38.38
46464;BME280;32161;48.148;-1.554;2023-06-24T12:10:36;101508.31;;;32.22;39.68
46464;BME280;32161;48.148;-1.554;2023-06-24T12:13:05;101505.75;;;32.32;40.39
46464;BME280;32161;48.148;-1.554;2023-06-24T12:15:34;101513.59;;;32.39;40.29
46464;BME280;32161;48.148;-1.554;2023-06-24T12:18:02;101509.81;;;32.47;40.92
46464;BME280;32161;48.148;-1.554;2023-06-24T12:20:31;101503.84;;;32.49;39.92
46464;BME280;32161;48.148;-1.554;2023-06-24T12:23:00;101502.75;;;32.53;40.66
46464;BME280;32161;48.148;-1.554;2023-06-24T12:25:29;101501.31;;;32.75;40.33
46464;BME280;32161;48.148;-1.554;2023-06-24T12:27:57;101491.31;;;32.78;39.00
46464;BME280;32161;48.148;-1.554;2023-06-24T12:30:25;101491.16;;;32.87;39.21
46464;BME280;32161;48.148;-1.554;2023-06-24T12:32:53;101484.66;;;32.86;38.82
46464;BME280;32161;48.148;-1.554;2023-06-24T12:35:22;101486.03;;;32.92;39.40
46464;BME280;32161;48.148;-1.554;2023-06-24T12:37:51;101484.16;;;32.96;38.69
46464;BME280;32161;48.148;-1.554;2023-06-24T12:40:19;101491.97;;;33.03;38.97
46464;BME280;32161;48.148;-1.554;2023-06-24T12:42:48;101480.50;;;33.12;39.05
46464;BME280;32161;48.148;-1.554;2023-06-24T12:45:16;101478.66;;;33.19;39.25
46464;BME280;32161;48.148;-1.554;2023-06-24T12:47:43;101475.31;;;33.14;38.82
46464;BME280;32161;48.148;-1.554;2023-06-24T12:50:11;101479.63;;;33.27;37.30
46464;BME280;32161;48.148;-1.554;2023-06-24T12:52:39;101463.69;;;33.15;38.09